Orbital elements of SL-14 R/B
| Launched | 25 December 1994 |
| Flight ended | – |
| Launch site | Plesetsk Missile and Space Complex, Russia |
| Owner | Commonwealth of Independent States (former USSR) |
| NORAD ID | 23447 |
| Date fetched |
Epoch osculation |
Inc. [°] |
Ecc. | RA asc node [hr] |
Arg Peri. [°] |
Mean anom [°] |
Mean motion [rev/day] |
Abs. mag |
| Date fetched |
Epoch osculation |
Inc. [°] |
Ecc. | RA asc node [hr] |
Arg Peri. [°] |
Mean anom [°] |
Mean motion [rev/day] |
Abs. mag |
| 2026 May 05 17:57 | 2026 May 05 06:37:32 | 82.5673 | 0.00375 | 4.8596 | 184.5834 | 350.0644 | 12.55516 | 4.743 |
| 2026 May 04 17:57 | 2026 Apr 30 09:39:32 | 82.5665 | 0.00373 | 5.0646 | 195.5257 | 350.0644 | 12.55516 | 4.743 |
| 2026 May 03 17:57 | 2026 Apr 30 09:39:32 | 82.5665 | 0.00373 | 5.0646 | 195.5257 | 350.0644 | 12.55516 | 4.743 |
| 2026 May 02 17:57 | 2026 Apr 30 09:39:32 | 82.5665 | 0.00373 | 5.0646 | 195.5257 | 350.0644 | 12.55516 | 4.743 |
| 2026 May 01 17:56 | 2026 Apr 30 09:39:32 | 82.5665 | 0.00373 | 5.0646 | 195.5257 | 350.0644 | 12.55516 | 4.743 |
| 2026 Apr 30 17:56 | 2026 Apr 30 09:39:32 | 82.5665 | 0.00373 | 5.0646 | 195.5257 | 350.0644 | 12.55516 | 4.743 |
| 2026 Apr 29 17:57 | 2026 Apr 24 08:29:58 | 82.5652 | 0.00370 | 5.3191 | 209.2336 | 350.0644 | 12.55516 | 4.743 |
| 2026 Apr 28 17:56 | 2026 Apr 24 08:29:58 | 82.5652 | 0.00370 | 5.3191 | 209.2336 | 350.0644 | 12.55516 | 4.743 |
| 2026 Apr 27 17:58 | 2026 Apr 24 08:29:58 | 82.5652 | 0.00370 | 5.3191 | 209.2336 | 350.0644 | 12.55516 | 4.743 |
| 2026 Apr 26 17:58 | 2026 Apr 24 08:29:58 | 82.5652 | 0.00370 | 5.3191 | 209.2336 | 350.0644 | 12.55516 | 4.743 |
| 2026 Apr 25 17:58 | 2026 Apr 24 08:29:58 | 82.5652 | 0.00370 | 5.3191 | 209.2336 | 350.0644 | 12.55516 | 4.743 |
| 2026 Apr 24 17:59 | 2026 Apr 24 08:29:58 | 82.5652 | 0.00370 | 5.3191 | 209.2336 | 350.0644 | 12.55516 | 4.743 |
| 2026 Apr 23 17:57 | 2026 Apr 19 08:02:34 | 82.5644 | 0.00369 | 5.5303 | 220.6418 | 350.0644 | 12.55516 | 4.743 |
| 2026 Apr 22 17:57 | 2026 Apr 19 08:02:34 | 82.5644 | 0.00369 | 5.5303 | 220.6418 | 350.0644 | 12.55516 | 4.743 |
| 2026 Apr 21 17:57 | 2026 Apr 19 08:02:34 | 82.5644 | 0.00369 | 5.5303 | 220.6418 | 350.0644 | 12.55516 | 4.743 |
| 2026 Apr 20 17:57 | 2026 Apr 19 08:02:34 | 82.5644 | 0.00369 | 5.5303 | 220.6418 | 350.0644 | 12.55516 | 4.743 |
| 2026 Apr 19 17:58 | 2026 Apr 19 08:02:34 | 82.5644 | 0.00369 | 5.5303 | 220.6418 | 350.0644 | 12.55516 | 4.743 |
| 2026 Apr 18 17:56 | 2026 Apr 13 05:54:08 | 82.5633 | 0.00367 | 5.7866 | 234.5560 | 350.0644 | 12.55516 | 4.743 |
| 2026 Apr 16 17:57 | 2026 Apr 13 05:54:08 | 82.5633 | 0.00367 | 5.7866 | 234.5560 | 350.0644 | 12.55516 | 4.743 |
| 2026 Apr 14 17:57 | 2026 Apr 13 05:54:08 | 82.5633 | 0.00367 | 5.7866 | 234.5560 | 350.0644 | 12.55516 | 4.743 |
| 2026 Apr 13 17:57 | 2026 Apr 13 05:54:08 | 82.5633 | 0.00367 | 5.7866 | 234.5560 | 350.0644 | 12.55516 | 4.743 |
| 2026 Apr 12 17:57 | 2026 Apr 08 11:43:06 | 82.5628 | 0.00366 | 5.9869 | 245.4793 | 350.0644 | 12.55516 | 4.743 |
| 2026 Apr 11 17:57 | 2026 Apr 08 11:43:06 | 82.5628 | 0.00366 | 5.9869 | 245.4793 | 350.0644 | 12.55516 | 4.743 |
| 2026 Apr 10 17:58 | 2026 Apr 08 11:43:06 | 82.5628 | 0.00366 | 5.9869 | 245.4793 | 350.0644 | 12.55516 | 4.743 |
| 2026 Apr 09 18:01 | 2026 Apr 08 11:43:06 | 82.5628 | 0.00366 | 5.9869 | 245.4793 | 350.0644 | 12.55516 | 4.743 |
| 2026 Apr 08 17:57 | 2026 Apr 08 11:43:06 | 82.5628 | 0.00366 | 5.9869 | 245.4793 | 350.0644 | 12.55516 | 4.743 |